createdAt,value
2023-05-18T00:01:14.467Z,11.50
2023-05-18T00:03:42.147Z,11.50
2023-05-18T00:06:10.346Z,11.40
2023-05-18T00:08:38.166Z,11.40
2023-05-18T00:11:06.655Z,11.30
2023-05-18T00:13:33.673Z,11.30
2023-05-18T00:16:01.958Z,11.20
2023-05-18T00:18:28.903Z,11.20
2023-05-18T00:20:58.704Z,11.20
2023-05-18T00:23:29.690Z,11.20
2023-05-18T00:25:57.667Z,11.20
2023-05-18T00:28:24.815Z,11.20
2023-05-18T00:30:51.794Z,11.20
2023-05-18T00:33:20.117Z,11.20
2023-05-18T00:35:47.119Z,11.10
2023-05-18T00:38:15.527Z,11.20
2023-05-18T00:40:42.916Z,11.10
2023-05-18T00:43:10.115Z,11.20
2023-05-18T00:45:37.100Z,11.10
2023-05-18T00:48:04.582Z,11.10
2023-05-18T00:50:33.284Z,11.10
2023-05-18T00:53:00.568Z,11.20
2023-05-18T00:55:28.715Z,11.10
2023-05-18T00:57:56.700Z,11.10
2023-05-18T01:00:24.036Z,11.10
2023-05-18T01:02:51.759Z,11.00
2023-05-18T01:05:20.166Z,11.00
2023-05-18T01:07:50.402Z,11.00
2023-05-18T01:10:19.812Z,11.00
2023-05-18T01:12:51.104Z,11.00
2023-05-18T01:15:20.529Z,10.90
2023-05-18T01:18:00.923Z,10.90
2023-05-18T01:20:37.854Z,10.90
2023-05-18T01:23:44.905Z,10.90
2023-05-18T01:26:17.617Z,10.90
2023-05-18T01:28:46.529Z,10.80
2023-05-18T01:31:16.035Z,11.00
2023-05-18T01:33:43.544Z,10.80
2023-05-18T01:36:11.070Z,10.80
2023-05-18T01:38:39.181Z,10.90
2023-05-18T01:41:14.872Z,10.90
2023-05-18T01:43:50.434Z,10.80
2023-05-18T01:46:28.239Z,10.80
2023-05-18T01:49:00.352Z,10.80
2023-05-18T01:51:32.759Z,10.80
2023-05-18T01:54:03.563Z,10.80
2023-05-18T01:56:31.984Z,10.80
2023-05-18T01:59:01.354Z,10.90
2023-05-18T02:01:28.399Z,10.90
2023-05-18T02:03:55.497Z,10.90
2023-05-18T02:06:22.533Z,10.90
2023-05-18T02:08:49.656Z,10.90
2023-05-18T02:11:16.551Z,10.90
2023-05-18T02:13:43.430Z,10.90
2023-05-18T02:16:11.840Z,10.80
2023-05-18T02:18:38.839Z,10.80
2023-05-18T02:21:05.785Z,10.80
2023-05-18T02:23:33.823Z,10.80
2023-05-18T02:26:01.078Z,10.80
2023-05-18T02:28:28.053Z,10.80
2023-05-18T02:30:54.899Z,10.80
2023-05-18T02:33:26.223Z,10.80
2023-05-18T02:35:53.577Z,10.90
2023-05-18T02:38:21.399Z,10.80
2023-05-18T02:40:48.489Z,10.80
2023-05-18T02:43:15.635Z,10.80
2023-05-18T02:45:42.512Z,10.80
2023-05-18T02:48:09.379Z,10.80
2023-05-18T02:50:37.718Z,10.80
2023-05-18T02:53:04.658Z,10.80
2023-05-18T02:55:31.717Z,10.70
2023-05-18T02:57:59.877Z,10.80
2023-05-18T03:00:26.752Z,10.70
2023-05-18T03:02:53.810Z,10.70
2023-05-18T03:05:23.831Z,10.70
2023-05-18T03:07:52.883Z,10.70
2023-05-18T03:10:20.072Z,10.70
2023-05-18T03:12:47.117Z,10.70
2023-05-18T03:15:16.173Z,10.70
2023-05-18T03:17:43.488Z,10.70
2023-05-18T03:20:15.528Z,10.70
2023-05-18T03:22:42.611Z,10.70
2023-05-18T03:25:10.914Z,10.70
2023-05-18T03:27:37.932Z,10.70
2023-05-18T03:30:06.084Z,10.60
2023-05-18T03:32:33.921Z,10.60
2023-05-18T03:35:04.766Z,10.60
2023-05-18T03:37:31.758Z,10.60
2023-05-18T03:40:00.532Z,10.50
2023-05-18T03:42:28.945Z,10.50
2023-05-18T03:44:55.871Z,10.50
2023-05-18T03:47:22.737Z,10.50
2023-05-18T03:49:49.648Z,10.40
2023-05-18T03:52:22.323Z,10.50
2023-05-18T03:54:49.809Z,10.40
2023-05-18T03:57:17.306Z,10.40
2023-05-18T03:59:46.075Z,10.40
2023-05-18T04:02:13.262Z,10.40
2023-05-18T04:04:45.961Z,10.40
2023-05-18T04:07:15.431Z,10.40
2023-05-18T04:09:43.144Z,10.40
2023-05-18T04:12:10.394Z,10.40
2023-05-18T04:14:37.403Z,10.40
2023-05-18T04:17:06.401Z,10.40
2023-05-18T04:19:33.691Z,10.40
2023-05-18T04:22:00.817Z,10.40
2023-05-18T04:24:27.729Z,10.40
2023-05-18T04:26:54.598Z,10.40
2023-05-18T04:29:22.519Z,10.40
2023-05-18T04:31:49.470Z,10.50
2023-05-18T04:34:20.691Z,10.50
2023-05-18T04:36:47.561Z,10.50
2023-05-18T04:39:15.020Z,10.50
2023-05-18T04:41:42.161Z,10.50
2023-05-18T04:44:09.635Z,10.60
2023-05-18T04:46:39.729Z,10.60
2023-05-18T04:49:06.784Z,10.60
2023-05-18T04:51:36.873Z,10.60
2023-05-18T04:54:04.126Z,10.60
2023-05-18T04:56:30.950Z,10.70
2023-05-18T04:58:59.477Z,10.70
2023-05-18T05:01:26.502Z,10.70
2023-05-18T05:03:53.476Z,10.80
2023-05-18T05:06:20.515Z,10.80
2023-05-18T05:08:48.791Z,10.90
2023-05-18T05:11:15.660Z,10.90
2023-05-18T05:13:42.675Z,10.90
2023-05-18T05:16:09.598Z,11.00
2023-05-18T05:18:36.516Z,11.10
2023-05-18T05:21:03.675Z,11.10
2023-05-18T05:23:30.588Z,11.10
2023-05-18T05:25:58.835Z,11.20
2023-05-18T05:28:25.755Z,11.20
2023-05-18T05:30:52.687Z,11.30
2023-05-18T05:33:19.621Z,11.30
2023-05-18T05:35:46.497Z,11.30
2023-05-18T05:38:13.431Z,11.40
2023-05-18T05:40:40.386Z,11.30
2023-05-18T05:43:08.636Z,11.40
2023-05-18T05:45:35.769Z,11.50
2023-05-18T05:48:02.662Z,11.50
2023-05-18T05:50:29.619Z,11.50
2023-05-18T05:52:56.497Z,11.60
2023-05-18T05:55:23.903Z,11.60
2023-05-18T05:57:50.840Z,11.70
2023-05-18T06:00:20.092Z,11.70
2023-05-18T06:02:48.000Z,11.80
2023-05-18T06:05:14.976Z,11.80
2023-05-18T06:07:41.936Z,11.90
2023-05-18T06:10:09.144Z,12.00
2023-05-18T06:12:36.026Z,12.00
2023-05-18T06:15:02.973Z,12.10
2023-05-18T06:17:31.260Z,12.10
2023-05-18T06:19:58.197Z,12.20
2023-05-18T06:22:25.562Z,12.30
2023-05-18T06:24:52.484Z,12.30
2023-05-18T06:27:19.571Z,12.40
2023-05-18T06:29:46.516Z,12.50
2023-05-18T06:32:13.781Z,12.50
2023-05-18T06:34:42.818Z,12.50
2023-05-18T06:37:11.442Z,12.60
2023-05-18T06:39:38.859Z,12.60
2023-05-18T06:42:06.293Z,12.60
2023-05-18T06:44:33.580Z,12.70
2023-05-18T06:47:00.795Z,12.70
2023-05-18T06:49:28.246Z,12.80
2023-05-18T06:51:56.536Z,12.90
2023-05-18T06:54:23.375Z,13.00
2023-05-18T06:56:50.461Z,13.10
2023-05-18T06:59:17.351Z,13.20
2023-05-18T07:01:44.248Z,13.30
2023-05-18T07:04:11.205Z,13.30
2023-05-18T07:06:38.365Z,13.30
2023-05-18T07:09:08.019Z,13.40
2023-05-18T07:11:34.998Z,13.50
2023-05-18T07:14:01.877Z,13.60
2023-05-18T07:16:28.967Z,13.70
2023-05-18T07:18:57.793Z,13.80
2023-05-18T07:21:24.845Z,13.90
2023-05-18T07:23:52.682Z,14.00
2023-05-18T07:26:22.442Z,14.00
2023-05-18T07:28:51.234Z,14.00
2023-05-18T07:31:21.101Z,14.30
2023-05-18T07:33:48.325Z,14.40
2023-05-18T07:36:15.416Z,14.40
2023-05-18T07:38:42.365Z,14.50
2023-05-18T07:41:09.366Z,14.50
2023-05-18T07:43:37.934Z,14.60
2023-05-18T07:46:05.331Z,14.70
2023-05-18T07:48:32.219Z,14.70
2023-05-18T07:50:59.521Z,14.80
2023-05-18T07:53:26.434Z,15.00
2023-05-18T07:55:53.586Z,15.00
2023-05-18T07:58:20.448Z,15.00
2023-05-18T08:00:48.823Z,15.10
2023-05-18T08:03:16.205Z,15.10
2023-05-18T08:05:43.217Z,15.20
2023-05-18T08:08:11.821Z,15.30
2023-05-18T08:10:38.844Z,15.40
2023-05-18T08:13:05.715Z,15.50
2023-05-18T08:15:32.730Z,15.70
2023-05-18T08:18:01.429Z,15.80
2023-05-18T08:20:31.622Z,15.90
2023-05-18T08:22:58.582Z,15.90
2023-05-18T08:25:25.922Z,16.10
2023-05-18T08:27:53.377Z,16.20
2023-05-18T08:30:21.580Z,16.30
2023-05-18T08:32:48.630Z,16.30
2023-05-18T08:35:17.510Z,16.40
2023-05-18T08:37:44.557Z,16.50
2023-05-18T08:40:12.920Z,16.60
2023-05-18T08:42:50.357Z,16.60
2023-05-18T08:45:23.857Z,16.60
2023-05-18T08:47:51.566Z,16.80
2023-05-18T08:50:24.135Z,16.80
2023-05-18T08:52:55.570Z,16.90
2023-05-18T08:55:23.706Z,17.00
2023-05-18T08:57:56.313Z,17.20
2023-05-18T09:00:24.701Z,17.30
2023-05-18T09:02:52.194Z,17.50
2023-05-18T09:05:21.915Z,17.70
2023-05-18T09:07:51.140Z,17.80
2023-05-18T09:10:18.818Z,17.90
2023-05-18T09:12:48.611Z,18.00
2023-05-18T09:15:17.406Z,18.00
2023-05-18T09:17:44.323Z,18.00
2023-05-18T09:20:12.217Z,18.10
2023-05-18T09:22:40.824Z,18.10
2023-05-18T09:25:10.675Z,18.10
2023-05-18T09:27:38.231Z,18.20
2023-05-18T09:30:10.139Z,18.30
2023-05-18T09:32:37.241Z,18.40
2023-05-18T09:35:04.978Z,18.60
2023-05-18T09:37:32.252Z,18.60
2023-05-18T09:40:01.636Z,18.60
2023-05-18T09:42:36.949Z,18.70
2023-05-18T09:45:04.217Z,18.80
2023-05-18T09:47:33.022Z,19.10
2023-05-18T09:49:59.988Z,19.30
2023-05-18T09:52:26.949Z,19.50
2023-05-18T09:55:00.911Z,19.70
2023-05-18T09:57:27.928Z,19.80
2023-05-18T10:00:03.426Z,19.90
2023-05-18T10:02:31.084Z,20.00
2023-05-18T10:04:58.734Z,20.10
2023-05-18T10:07:25.974Z,20.30
2023-05-18T10:10:03.579Z,20.20
2023-05-18T10:12:30.645Z,20.20
2023-05-18T10:14:57.584Z,20.30
2023-05-18T10:17:26.361Z,20.40
2023-05-18T10:19:55.802Z,20.40
2023-05-18T10:22:23.454Z,20.50
2023-05-18T10:24:52.752Z,20.50
2023-05-18T10:27:26.807Z,20.50
2023-05-18T10:29:55.052Z,20.50
2023-05-18T10:32:24.227Z,20.50
2023-05-18T10:34:52.879Z,20.50
2023-05-18T10:37:22.787Z,20.60
2023-05-18T10:39:51.430Z,20.70
2023-05-18T10:42:21.081Z,20.70
2023-05-18T10:44:50.372Z,20.80
2023-05-18T10:47:19.403Z,20.90
2023-05-18T10:49:48.617Z,21.10
2023-05-18T10:52:17.837Z,21.10
2023-05-18T10:54:45.665Z,21.20
2023-05-18T10:57:16.710Z,21.20
2023-05-18T10:59:48.232Z,21.30
2023-05-18T11:02:18.496Z,21.30
2023-05-18T11:04:47.728Z,21.20
2023-05-18T11:07:15.583Z,21.20
2023-05-18T11:09:43.228Z,21.30
2023-05-18T11:12:14.055Z,21.30
2023-05-18T11:14:50.479Z,21.30
2023-05-18T11:17:19.383Z,21.30
2023-05-18T11:20:13.380Z,21.10
2023-05-18T11:22:46.871Z,21.20
2023-05-18T11:25:48.504Z,21.40
2023-05-18T11:28:15.675Z,21.60
2023-05-18T11:30:51.138Z,21.90
2023-05-18T11:33:24.158Z,22.10
2023-05-18T11:35:58.625Z,22.20
2023-05-18T11:38:53.494Z,22.20
2023-05-18T11:41:35.049Z,22.00
2023-05-18T11:44:10.094Z,21.90
2023-05-18T11:46:39.980Z,22.00
2023-05-18T11:49:08.447Z,22.10
2023-05-18T11:52:01.657Z,22.20
2023-05-18T11:54:29.122Z,22.30
2023-05-18T11:56:56.117Z,22.50
2023-05-18T11:59:33.767Z,22.70
2023-05-18T12:02:03.879Z,22.90
2023-05-18T12:04:32.539Z,22.90
2023-05-18T12:07:00.828Z,22.90
2023-05-18T12:09:30.485Z,23.10
2023-05-18T12:11:57.406Z,23.20
2023-05-18T12:14:25.100Z,23.40
2023-05-18T12:16:53.558Z,23.40
2023-05-18T12:19:23.627Z,23.40
2023-05-18T12:21:51.110Z,23.40
2023-05-18T12:24:18.051Z,23.40
2023-05-18T12:26:46.623Z,23.50
2023-05-18T12:29:19.761Z,23.60
2023-05-18T12:31:48.059Z,23.70
2023-05-18T12:34:15.374Z,23.80
2023-05-18T12:36:52.483Z,23.70
2023-05-18T12:39:19.388Z,23.60
2023-05-18T12:41:46.709Z,23.40
2023-05-18T12:44:13.658Z,23.20
2023-05-18T12:46:41.741Z,23.00
2023-05-18T12:49:09.340Z,22.80
2023-05-18T12:51:37.978Z,22.60
2023-05-18T12:54:07.126Z,22.60
2023-05-18T12:56:51.619Z,22.60
2023-05-18T12:59:19.710Z,22.50
2023-05-18T13:01:46.769Z,22.40
2023-05-18T13:04:14.417Z,22.30
2023-05-18T13:06:42.412Z,22.30
2023-05-18T13:09:12.454Z,22.40
2023-05-18T13:11:39.527Z,22.40
2023-05-18T13:14:08.024Z,22.30
2023-05-18T13:16:38.338Z,22.30
2023-05-18T13:19:07.122Z,22.40
2023-05-18T13:21:34.823Z,22.50
2023-05-18T13:24:01.944Z,22.40
2023-05-18T13:26:31.235Z,22.40
2023-05-18T13:28:58.411Z,22.50
2023-05-18T13:31:25.437Z,22.50
2023-05-18T13:33:52.574Z,22.30
2023-05-18T13:36:19.579Z,22.50
2023-05-18T13:38:46.524Z,22.50
2023-05-18T13:41:15.248Z,22.60
2023-05-18T13:43:43.710Z,22.70
2023-05-18T13:46:10.722Z,22.80
2023-05-18T13:48:37.772Z,23.00
2023-05-18T13:51:04.790Z,23.10
2023-05-18T13:53:31.734Z,23.10
2023-05-18T13:55:58.690Z,23.10
2023-05-18T13:58:25.656Z,23.20
2023-05-18T14:00:54.687Z,23.20
2023-05-18T14:03:21.908Z,23.10
2023-05-18T14:05:49.259Z,23.00
2023-05-18T14:08:16.236Z,22.90
2023-05-18T14:10:43.262Z,22.80
2023-05-18T14:13:10.220Z,22.70
2023-05-18T14:15:37.135Z,22.60
2023-05-18T14:18:05.855Z,22.40
2023-05-18T14:20:33.820Z,22.30
2023-05-18T14:23:03.640Z,22.20
2023-05-18T14:25:31.442Z,22.10
2023-05-18T14:27:58.345Z,21.90
2023-05-18T14:30:25.227Z,21.70
2023-05-18T14:32:52.243Z,21.60
2023-05-18T14:35:20.497Z,21.50
2023-05-18T14:37:47.411Z,21.60
2023-05-18T14:40:14.328Z,21.50
2023-05-18T14:42:41.244Z,21.40
2023-05-18T14:45:09.404Z,21.40
2023-05-18T14:47:36.294Z,21.30
2023-05-18T14:50:03.360Z,21.30
2023-05-18T14:52:31.576Z,21.30
2023-05-18T14:54:58.481Z,21.40
2023-05-18T14:57:26.824Z,21.50
2023-05-18T14:59:54.098Z,21.40
2023-05-18T15:02:21.176Z,21.40
2023-05-18T15:04:48.153Z,21.30
2023-05-18T15:07:15.030Z,21.30
2023-05-18T15:09:43.367Z,21.20
2023-05-18T15:12:10.667Z,21.30
2023-05-18T15:14:38.126Z,21.40
2023-05-18T15:17:07.443Z,21.20
2023-05-18T15:19:34.495Z,21.40
2023-05-18T15:22:01.434Z,21.50
2023-05-18T15:24:28.417Z,21.50
2023-05-18T15:26:56.921Z,21.40
2023-05-18T15:29:23.839Z,21.30
2023-05-18T15:31:51.520Z,21.30
2023-05-18T15:34:18.616Z,21.20
2023-05-18T15:36:46.101Z,21.30
2023-05-18T15:39:13.179Z,21.30
2023-05-18T15:41:40.153Z,21.30
2023-05-18T15:44:08.402Z,21.30
2023-05-18T15:46:35.943Z,21.40
2023-05-18T15:49:03.869Z,21.30
2023-05-18T15:51:31.267Z,21.30
2023-05-18T15:53:58.146Z,21.30
2023-05-18T15:56:25.219Z,21.20
2023-05-18T15:58:52.105Z,21.20
2023-05-18T16:01:20.401Z,21.10
2023-05-18T16:03:47.460Z,21.00
2023-05-18T16:06:14.437Z,21.00
2023-05-18T16:08:41.416Z,21.00
2023-05-18T16:11:08.326Z,20.90
2023-05-18T16:13:35.469Z,20.90
2023-05-18T16:16:03.462Z,20.90
2023-05-18T16:18:31.853Z,20.90
2023-05-18T16:20:58.832Z,20.80
2023-05-18T16:23:25.889Z,20.80
2023-05-18T16:25:52.812Z,20.80
2023-05-18T16:28:19.685Z,20.70
2023-05-18T16:30:46.668Z,20.60
2023-05-18T16:33:13.785Z,20.60
2023-05-18T16:35:42.198Z,20.50
2023-05-18T16:38:09.111Z,20.50
2023-05-18T16:40:35.977Z,20.50
2023-05-18T16:43:02.888Z,20.40
2023-05-18T16:45:29.868Z,20.40
2023-05-18T16:47:56.902Z,20.30
2023-05-18T16:50:24.147Z,20.20
2023-05-18T16:52:52.431Z,20.30
2023-05-18T16:55:19.612Z,20.20
2023-05-18T16:57:46.539Z,20.20
2023-05-18T17:00:14.464Z,20.10
2023-05-18T17:02:41.681Z,20.00
2023-05-18T17:05:09.369Z,19.90
2023-05-18T17:07:37.213Z,19.80
2023-05-18T17:10:06.905Z,19.70
2023-05-18T17:12:33.860Z,19.70
2023-05-18T17:15:02.656Z,19.70
2023-05-18T17:17:29.784Z,19.60
2023-05-18T17:19:56.760Z,19.60
2023-05-18T17:22:23.819Z,19.60
2023-05-18T17:24:50.840Z,19.50
2023-05-18T17:27:19.113Z,19.40
2023-05-18T17:29:46.073Z,19.40
2023-05-18T17:32:13.052Z,19.30
2023-05-18T17:34:40.546Z,19.30
2023-05-18T17:37:07.604Z,19.30
2023-05-18T17:39:34.584Z,19.20
2023-05-18T17:42:01.795Z,19.10
2023-05-18T17:44:31.026Z,19.00
2023-05-18T17:46:58.683Z,19.00
2023-05-18T17:49:25.732Z,18.90
2023-05-18T17:51:52.769Z,18.80
2023-05-18T17:54:19.687Z,18.70
2023-05-18T17:56:46.637Z,18.60
2023-05-18T17:59:13.642Z,18.60
2023-05-18T18:01:43.062Z,18.60
2023-05-18T18:04:10.525Z,18.50
2023-05-18T18:06:37.551Z,18.50
2023-05-18T18:09:05.052Z,18.40
2023-05-18T18:11:32.118Z,18.40
2023-05-18T18:13:59.881Z,18.40
2023-05-18T18:16:26.937Z,18.40
2023-05-18T18:18:56.694Z,18.40
2023-05-18T18:21:23.770Z,18.30
2023-05-18T18:23:50.625Z,18.30
2023-05-18T18:26:17.936Z,18.20
2023-05-18T18:28:44.906Z,18.20
2023-05-18T18:31:11.808Z,18.10
2023-05-18T18:33:38.720Z,18.10
2023-05-18T18:36:07.796Z,18.00
2023-05-18T18:38:34.761Z,18.00
2023-05-18T18:41:04.349Z,18.00
2023-05-18T18:43:31.771Z,17.90
2023-05-18T18:45:59.338Z,17.80
2023-05-18T18:48:26.723Z,17.70
2023-05-18T18:50:53.973Z,17.60
2023-05-18T18:53:22.286Z,17.50
2023-05-18T18:55:49.293Z,17.50
2023-05-18T18:58:16.753Z,17.50
2023-05-18T19:00:43.927Z,17.40
2023-05-18T19:03:10.987Z,17.40
2023-05-18T19:05:38.695Z,17.30
2023-05-18T19:08:06.159Z,17.30
2023-05-18T19:10:35.000Z,17.20
2023-05-18T19:13:05.654Z,17.20
2023-05-18T19:15:33.383Z,17.10
2023-05-18T19:18:01.030Z,17.10
2023-05-18T19:20:28.094Z,17.10
2023-05-18T19:22:55.033Z,17.00
2023-05-18T19:25:24.585Z,17.00
2023-05-18T19:27:53.441Z,16.90
2023-05-18T19:30:23.586Z,16.90
2023-05-18T19:32:51.448Z,16.80
2023-05-18T19:35:19.908Z,16.80
2023-05-18T19:37:47.332Z,16.70
2023-05-18T19:40:14.294Z,16.70
2023-05-18T19:42:41.264Z,16.70
2023-05-18T19:45:09.812Z,16.60
2023-05-18T19:47:36.855Z,16.60
2023-05-18T19:50:04.614Z,16.50
2023-05-18T19:52:33.357Z,16.50
2023-05-18T19:55:00.554Z,16.40
2023-05-18T19:57:27.588Z,16.40
2023-05-18T19:59:54.575Z,16.40
2023-05-18T20:02:22.906Z,16.40
2023-05-18T20:04:50.477Z,16.30
2023-05-18T20:07:18.076Z,16.30
2023-05-18T20:09:45.112Z,16.30
2023-05-18T20:12:12.115Z,16.30
2023-05-18T20:14:39.201Z,16.20
2023-05-18T20:17:06.327Z,16.20
2023-05-18T20:19:37.757Z,16.10
2023-05-18T20:22:05.540Z,16.10
2023-05-18T20:24:32.606Z,16.10
2023-05-18T20:26:59.690Z,16.10
2023-05-18T20:29:26.936Z,16.00
2023-05-18T20:31:54.706Z,16.00
2023-05-18T20:34:22.131Z,15.90
2023-05-18T20:36:50.525Z,15.90
2023-05-18T20:39:17.669Z,15.90
2023-05-18T20:41:45.400Z,15.90
2023-05-18T20:44:17.525Z,15.80
2023-05-18T20:46:44.580Z,15.80
2023-05-18T20:49:14.126Z,15.80
2023-05-18T20:51:41.114Z,15.80
2023-05-18T20:54:09.388Z,15.70
2023-05-18T20:56:36.497Z,15.70
2023-05-18T20:59:06.166Z,15.60
2023-05-18T21:01:39.277Z,15.60
2023-05-18T21:04:06.976Z,15.70
2023-05-18T21:06:34.516Z,15.70
2023-05-18T21:09:01.621Z,15.70
2023-05-18T21:11:30.897Z,15.60
2023-05-18T21:13:57.759Z,15.60
2023-05-18T21:16:24.958Z,15.50
2023-05-18T21:18:52.784Z,15.50
2023-05-18T21:21:19.674Z,15.40
2023-05-18T21:23:46.627Z,15.40
2023-05-18T21:26:13.640Z,15.30
2023-05-18T21:28:41.897Z,15.30
2023-05-18T21:31:08.928Z,15.20
2023-05-18T21:33:36.160Z,15.10
2023-05-18T21:36:04.097Z,15.00
2023-05-18T21:38:31.245Z,15.00
2023-05-18T21:40:58.553Z,14.90
2023-05-18T21:43:25.555Z,14.90
2023-05-18T21:45:53.941Z,14.80
2023-05-18T21:48:20.896Z,14.80
2023-05-18T21:50:47.838Z,14.70
2023-05-18T21:53:15.010Z,14.70
2023-05-18T21:55:41.875Z,14.60
2023-05-18T21:58:08.853Z,14.60
2023-05-18T22:00:36.406Z,14.50
2023-05-18T22:03:04.726Z,14.50
2023-05-18T22:05:31.780Z,14.50
2023-05-18T22:07:59.150Z,14.50
2023-05-18T22:10:26.236Z,14.40
2023-05-18T22:12:53.135Z,14.40
2023-05-18T22:15:22.275Z,14.40
2023-05-18T22:17:49.416Z,14.40
2023-05-18T22:20:17.685Z,14.40
2023-05-18T22:22:44.714Z,14.40
2023-05-18T22:25:12.652Z,14.40
2023-05-18T22:27:39.652Z,14.30
2023-05-18T22:30:07.512Z,14.30
2023-05-18T22:32:34.589Z,14.30
2023-05-18T22:35:01.728Z,14.30
2023-05-18T22:37:29.969Z,14.20
2023-05-18T22:39:56.909Z,14.20
2023-05-18T22:42:23.817Z,14.20
2023-05-18T22:44:51.285Z,14.10
2023-05-18T22:47:21.394Z,14.10
2023-05-18T22:49:49.078Z,14.00
2023-05-18T22:52:17.818Z,14.10
2023-05-18T22:54:46.290Z,14.00
2023-05-18T22:57:13.551Z,14.00
2023-05-18T22:59:40.441Z,14.00
2023-05-18T23:02:07.509Z,14.00
2023-05-18T23:04:35.268Z,13.90
2023-05-18T23:07:03.998Z,13.90
2023-05-18T23:09:31.274Z,13.90
2023-05-18T23:12:01.011Z,13.80
2023-05-18T23:14:32.532Z,13.80
2023-05-18T23:16:59.644Z,13.80
2023-05-18T23:19:27.002Z,13.80
2023-05-18T23:21:54.030Z,13.80
2023-05-18T23:24:21.087Z,13.80
2023-05-18T23:26:48.338Z,13.80
2023-05-18T23:29:16.626Z,13.70
2023-05-18T23:31:43.531Z,13.70
2023-05-18T23:34:11.127Z,13.70
2023-05-18T23:36:39.539Z,13.70
2023-05-18T23:39:07.145Z,13.70
2023-05-18T23:41:35.832Z,13.70
2023-05-18T23:44:03.391Z,13.60
2023-05-18T23:46:34.278Z,13.60
2023-05-18T23:49:01.797Z,13.60
2023-05-18T23:51:32.043Z,13.60
2023-05-18T23:54:00.314Z,13.60
2023-05-18T23:56:28.179Z,13.50
2023-05-18T23:58:55.473Z,13.50
